Time;durP1;ratioP1;P1;durP2;ratioP2;P2;SDS_P1;SDS_P2;PMS_P1;PMS_P2;Temp;Humidity;BMP_temperature;BMP_pressure;BME280_temperature;BME280_humidity;BME280_pressure;Samples;Min_cycle;Max_cycle;Signal;HPM_P1;HPM_P2
2021/03/09 00:00:00;;;;;;;17.20;11.10;;;-0.50;72.50;;;;;;4997097;28;20460;-55
2021/03/09 00:02:26;;;;;;;19.83;11.10;;;-0.50;72.90;;;;;;5009155;28;20922;-53
2021/03/09 00:04:52;;;;;;;22.13;9.97;;;-0.50;73.90;;;;;;5014978;28;20478;-57
2021/03/09 00:07:17;;;;;;;18.33;10.43;;;-0.60;74.60;;;;;;5008797;28;20180;-57
2021/03/09 00:09:45;;;;;;;18.53;10.07;;;-0.60;75.10;;;;;;5019454;28;20554;-55
2021/03/09 00:12:10;;;;;;;17.50;9.90;;;-0.60;75.60;;;;;;5017888;28;20242;-55
2021/03/09 00:14:36;;;;;;;15.97;10.50;;;-0.70;75.90;;;;;;5009935;28;20420;-53
2021/03/09 00:17:02;;;;;;;18.83;9.77;;;-0.70;77.00;;;;;;5016912;28;20189;-54
2021/03/09 00:19:27;;;;;;;18.67;10.63;;;-0.70;77.60;;;;;;5005630;28;20213;-57
2021/03/09 00:21:53;;;;;;;19.47;10.63;;;-0.70;77.80;;;;;;5011061;28;20287;-55
2021/03/09 00:24:19;;;;;;;21.00;10.30;;;-0.70;77.40;;;;;;5005160;28;20178;-53
2021/03/09 00:26:44;;;;;;;20.43;9.97;;;-0.70;77.80;;;;;;5012397;28;20178;-53
2021/03/09 00:29:10;;;;;;;17.93;10.40;;;-0.80;78.00;;;;;;5012332;28;20190;-53
2021/03/09 00:31:36;;;;;;;20.27;11.13;;;-0.80;78.80;;;;;;5009020;28;20581;-55
2021/03/09 00:34:02;;;;;;;20.17;10.70;;;-0.80;79.00;;;;;;5009964;28;20585;-56
2021/03/09 00:36:28;;;;;;;20.23;10.57;;;-0.80;79.00;;;;;;5005824;28;20442;-53
2021/03/09 00:38:53;;;;;;;20.00;11.20;;;-0.80;79.10;;;;;;5007699;28;20200;-53
2021/03/09 00:41:19;;;;;;;16.33;10.00;;;-0.90;79.90;;;;;;5006822;28;20179;-56
2021/03/09 00:43:45;;;;;;;16.23;9.57;;;-0.90;80.50;;;;;;5009236;28;20199;-53
2021/03/09 00:46:10;;;;;;;23.03;10.23;;;-0.90;80.20;;;;;;5016864;28;20202;-57
2021/03/09 00:48:39;;;;;;;14.87;9.40;;;-0.90;80.70;;;;;;5009660;28;20228;-54
2021/03/09 00:51:06;;;;;;;17.33;10.37;;;-0.90;80.80;;;;;;5025316;28;20179;-53
2021/03/09 00:53:32;;;;;;;19.63;10.50;;;-1.00;81.00;;;;;;5023175;28;20470;-52
2021/03/09 00:55:57;;;;;;;17.10;10.37;;;-1.00;81.60;;;;;;5012416;28;20739;-53
2021/03/09 00:58:23;;;;;;;20.10;11.00;;;-1.10;82.30;;;;;;5006443;28;20677;-53
2021/03/09 01:00:49;;;;;;;19.30;10.37;;;-1.10;82.90;;;;;;5018903;28;20198;-54
2021/03/09 01:03:15;;;;;;;21.00;9.07;;;-1.10;83.50;;;;;;5015927;28;20465;-54
2021/03/09 01:05:41;;;;;;;16.23;9.27;;;-1.10;83.60;;;;;;5006338;28;20429;-53
2021/03/09 01:08:07;;;;;;;17.13;9.50;;;-1.10;83.80;;;;;;5012825;28;20450;-55
2021/03/09 01:10:33;;;;;;;18.00;9.87;;;-1.20;84.00;;;;;;5008354;28;20437;-55
2021/03/09 01:12:59;;;;;;;23.33;10.97;;;-1.20;84.10;;;;;;5008726;28;20210;-54
2021/03/09 01:15:25;;;;;;;14.33;9.17;;;-1.20;84.70;;;;;;5013580;28;20529;-55
2021/03/09 01:17:51;;;;;;;17.23;10.77;;;-1.20;85.10;;;;;;5015597;28;20518;-56
2021/03/09 01:20:16;;;;;;;18.03;9.80;;;-1.20;85.30;;;;;;5005765;28;20300;-52
2021/03/09 01:22:42;;;;;;;15.90;10.07;;;-1.20;85.70;;;;;;5010599;28;20193;-53
2021/03/09 01:25:08;;;;;;;23.00;9.60;;;-1.20;85.80;;;;;;5015172;28;20187;-54
2021/03/09 01:27:34;;;;;;;18.20;10.00;;;-1.20;86.20;;;;;;5010615;28;20194;-51
2021/03/09 01:30:00;;;;;;;15.13;9.50;;;-1.20;86.20;;;;;;5007329;28;20522;-57
2021/03/09 01:32:26;;;;;;;15.70;9.13;;;-1.20;86.80;;;;;;5009897;28;20213;-54
2021/03/09 01:34:51;;;;;;;21.47;10.87;;;-1.20;87.50;;;;;;5013505;28;20482;-56
2021/03/09 01:37:17;;;;;;;15.37;9.37;;;-1.20;87.60;;;;;;5009521;28;20192;-50
2021/03/09 01:39:43;;;;;;;20.97;10.27;;;-1.30;87.60;;;;;;5023939;28;20341;-53
2021/03/09 01:42:09;;;;;;;15.23;9.00;;;-1.30;87.60;;;;;;5013804;28;20639;-54
2021/03/09 01:44:36;;;;;;;15.50;9.70;;;-1.30;88.70;;;;;;5011300;28;21185;-53
2021/03/09 01:47:02;;;;;;;20.33;10.33;;;-1.30;88.70;;;;;;5005591;28;20437;-56
2021/03/09 01:49:32;;;;;;;12.83;9.10;;;-1.30;88.70;;;;;;5017772;28;20424;-57
2021/03/09 01:51:58;;;;;;;19.53;10.20;;;-1.30;88.40;;;;;;5018277;28;20430;-54
2021/03/09 01:54:25;;;;;;;26.43;11.07;;;-1.40;87.50;;;;;;5006927;28;20438;-55
2021/03/09 01:56:52;;;;;;;16.63;10.53;;;-1.40;87.40;;;;;;5006312;28;20440;-54
2021/03/09 01:59:18;;;;;;;20.60;9.03;;;-1.40;87.30;;;;;;5016398;28;20521;-54
2021/03/09 02:01:44;;;;;;;15.67;9.70;;;-1.40;87.40;;;;;;5006480;28;20455;-58
2021/03/09 02:04:11;;;;;;;16.33;9.90;;;-1.50;87.40;;;;;;5004360;28;20428;-54
2021/03/09 02:06:37;;;;;;;17.47;9.23;;;-1.50;87.00;;;;;;5002303;28;20910;-55
2021/03/09 02:09:04;;;;;;;19.10;10.53;;;-1.50;87.00;;;;;;5018430;28;20856;-54
2021/03/09 02:11:43;;;;;;;17.90;9.90;;;-1.60;87.20;;;;;;5014715;28;20493;-54
2021/03/09 02:14:50;;;;;;;16.80;9.13;;;-1.60;87.70;;;;;;5001395;28;20519;-54
2021/03/09 02:17:29;;;;;;;19.00;9.50;;;-1.60;88.70;;;;;;5005257;28;20411;-56
2021/03/09 02:20:32;;;;;;;25.53;10.67;;;-1.70;89.30;;;;;;5008965;28;20471;-55
2021/03/09 02:23:13;;;;;;;24.40;10.57;;;-1.70;89.70;;;;;;5009610;28;20474;-53
2021/03/09 02:26:12;;;;;;;19.70;10.40;;;-1.70;90.10;;;;;;5006611;28;20473;-54
2021/03/09 02:28:47;;;;;;;19.40;10.30;;;-1.70;90.20;;;;;;5007979;28;20525;-51
2021/03/09 02:31:14;;;;;;;20.20;10.07;;;-1.80;90.20;;;;;;5007366;28;20437;-53
2021/03/09 02:34:05;;;;;;;15.80;9.93;;;-1.80;90.00;;;;;;5006832;28;20428;-55
2021/03/09 02:36:31;;;;;;;19.80;9.97;;;-1.80;89.90;;;;;;5005350;28;20781;-55
2021/03/09 02:39:00;;;;;;;20.40;10.63;;;-1.80;89.60;;;;;;5001028;28;20580;-55
2021/03/09 02:41:29;;;;;;;21.50;10.03;;;-1.80;89.10;;;;;;4997010;28;20945;-53
2021/03/09 02:43:56;;;;;;;18.57;10.67;;;-1.80;89.80;;;;;;5007148;28;20454;-55
2021/03/09 02:46:28;;;;;;;19.10;10.60;;;-1.90;89.70;;;;;;5004623;28;20511;-56
2021/03/09 02:48:54;;;;;;;24.17;11.00;;;-1.90;90.10;;;;;;5006223;28;20533;-55
2021/03/09 02:51:26;;;;;;;23.20;11.37;;;-1.90;90.20;;;;;;5009138;28;20530;-54
2021/03/09 02:53:54;;;;;;;25.57;11.10;;;-2.00;90.10;;;;;;5008508;28;20404;-55
2021/03/09 02:56:22;;;;;;;23.20;11.00;;;-1.90;90.30;;;;;;5012791;28;20433;-54
2021/03/09 02:58:54;;;;;;;22.10;11.27;;;-2.00;90.30;;;;;;5011179;28;20429;-53
2021/03/09 03:01:20;;;;;;;22.10;10.17;;;-2.00;90.40;;;;;;5014823;28;20412;-56
2021/03/09 03:03:47;;;;;;;18.30;10.13;;;-2.00;90.60;;;;;;5008181;28;20431;-54
2021/03/09 03:06:15;;;;;;;17.60;9.67;;;-2.00;90.70;;;;;;5016421;28;20498;-55
2021/03/09 03:08:43;;;;;;;18.90;9.37;;;-2.00;90.70;;;;;;5009122;28;20433;-52
2021/03/09 03:11:10;;;;;;;22.60;8.70;;;-2.00;90.80;;;;;;5006088;28;20908;-54
2021/03/09 03:13:36;;;;;;;15.00;8.53;;;-2.00;91.00;;;;;;5003425;28;20544;-56
2021/03/09 03:16:04;;;;;;;19.07;9.10;;;-2.00;91.00;;;;;;5004944;28;20430;-55
2021/03/09 03:18:32;;;;;;;18.30;9.53;;;-2.10;91.10;;;;;;5012511;28;20463;-55
2021/03/09 03:20:59;;;;;;;23.70;10.67;;;-2.10;91.10;;;;;;5014967;28;20438;-56
2021/03/09 03:23:25;;;;;;;18.53;9.70;;;-2.10;90.90;;;;;;5012376;28;20430;-53
2021/03/09 03:25:53;;;;;;;19.83;10.07;;;-2.20;91.10;;;;;;5016898;28;20430;-52
2021/03/09 03:28:20;;;;;;;17.70;10.23;;;-2.20;91.10;;;;;;5009932;28;20728;-53
2021/03/09 03:30:47;;;;;;;19.70;10.37;;;-2.20;91.30;;;;;;5012835;28;20530;-54
2021/03/09 03:33:13;;;;;;;20.77;10.20;;;-2.30;91.40;;;;;;5009765;28;20503;-55
2021/03/09 03:35:39;;;;;;;18.43;10.03;;;-2.30;91.80;;;;;;5018203;28;20506;-55
2021/03/09 03:38:06;;;;;;;20.77;10.47;;;-2.30;92.00;;;;;;5015395;28;20887;-53
2021/03/09 03:40:31;;;;;;;21.67;10.50;;;-2.30;92.20;;;;;;5016460;28;20442;-52
2021/03/09 03:42:57;;;;;;;24.03;11.57;;;-2.30;92.20;;;;;;5016023;28;20484;-53
2021/03/09 03:45:23;;;;;;;20.77;11.07;;;-2.20;92.20;;;;;;5006502;28;20696;-50
2021/03/09 03:47:58;;;;;;;20.47;9.60;;;-2.30;92.20;;;;;;5015394;28;20649;-53
2021/03/09 03:50:25;;;;;;;17.67;9.40;;;-2.20;92.00;;;;;;5016085;28;20506;-53
2021/03/09 03:53:08;;;;;;;24.07;10.10;;;-2.30;91.80;;;;;;5016457;28;20472;-51
2021/03/09 03:55:39;;;;;;;17.93;9.70;;;-2.30;91.70;;;;;;4999810;28;20433;-53
2021/03/09 03:58:22;;;;;;;21.50;11.20;;;-2.30;91.90;;;;;;5009311;28;20410;-54
2021/03/09 04:00:50;;;;;;;17.20;9.87;;;-2.30;92.10;;;;;;5019138;28;20522;-54
2021/03/09 04:03:16;;;;;;;20.47;10.50;;;-2.40;92.10;;;;;;5008521;28;21022;-55
2021/03/09 04:05:46;;;;;;;18.40;9.80;;;-2.40;92.20;;;;;;5019743;28;20395;-52
2021/03/09 04:08:13;;;;;;;18.97;10.47;;;-2.40;92.30;;;;;;5029044;28;20482;-53
2021/03/09 04:10:41;;;;;;;19.50;10.63;;;-2.40;92.50;;;;;;5020114;28;20445;-53
2021/03/09 04:13:07;;;;;;;19.20;10.13;;;-2.40;92.70;;;;;;5008826;28;20465;-54
2021/03/09 04:15:34;;;;;;;24.90;11.20;;;-2.40;92.70;;;;;;5012406;28;20510;-54
2021/03/09 04:18:03;;;;;;;20.00;11.00;;;-2.40;92.60;;;;;;5011317;28;20487;-55
2021/03/09 04:20:30;;;;;;;18.43;10.50;;;-2.40;92.60;;;;;;5013432;28;20463;-55
2021/03/09 04:22:57;;;;;;;16.47;9.80;;;-2.40;92.60;;;;;;5011465;28;20526;-52
2021/03/09 04:25:24;;;;;;;21.30;10.17;;;-2.40;92.60;;;;;;5017947;28;20584;-53
2021/03/09 04:27:50;;;;;;;23.03;10.53;;;-2.50;92.50;;;;;;4999207;28;20476;-55
2021/03/09 04:30:17;;;;;;;20.37;9.80;;;-2.50;92.40;;;;;;5014346;28;20415;-51
2021/03/09 04:32:43;;;;;;;20.90;9.93;;;-2.50;92.40;;;;;;5014105;28;20451;-53
2021/03/09 04:35:11;;;;;;;18.30;10.03;;;-2.50;92.60;;;;;;5020041;28;20503;-52
2021/03/09 04:37:38;;;;;;;20.67;11.37;;;-2.60;92.60;;;;;;5011750;28;20443;-53
2021/03/09 04:40:05;;;;;;;23.20;10.10;;;-2.60;92.60;;;;;;5021535;28;20440;-57
2021/03/09 04:42:31;;;;;;;19.77;11.00;;;-2.60;92.60;;;;;;5016085;28;20545;-53
2021/03/09 04:44:56;;;;;;;25.50;10.17;;;-2.60;92.70;;;;;;5016612;28;20851;-53
2021/03/09 04:47:22;;;;;;;24.70;9.97;;;-2.60;93.10;;;;;;5020997;28;20198;-55
2021/03/09 04:49:53;;;;;;;21.80;10.53;;;-2.70;93.00;;;;;;5009896;28;20720;-53
2021/03/09 04:52:19;;;;;;;19.07;10.30;;;-2.70;93.00;;;;;;5005044;28;20432;-52
2021/03/09 04:54:44;;;;;;;17.47;10.10;;;-2.70;93.10;;;;;;5008487;28;20760;-53
2021/03/09 04:57:10;;;;;;;23.70;10.23;;;-2.70;93.00;;;;;;5016626;28;20214;-53
2021/03/09 04:59:36;;;;;;;19.80;10.23;;;-2.70;93.00;;;;;;5008027;28;20283;-55
2021/03/09 05:02:03;;;;;;;23.63;11.00;;;-2.80;93.10;;;;;;5001614;28;20584;-53
2021/03/09 05:04:28;;;;;;;21.33;10.97;;;-2.80;93.20;;;;;;5009794;28;20205;-53
2021/03/09 05:06:54;;;;;;;25.00;11.37;;;-2.80;93.20;;;;;;5011605;28;20412;-54
2021/03/09 05:09:20;;;;;;;20.97;10.27;;;-2.80;93.30;;;;;;4993183;28;20201;-53
2021/03/09 05:11:46;;;;;;;19.80;10.17;;;-2.80;93.30;;;;;;5001512;28;21034;-54
2021/03/09 05:14:11;;;;;;;24.10;10.87;;;-2.80;93.50;;;;;;5003848;28;20263;-53
2021/03/09 05:16:37;;;;;;;21.90;10.00;;;-2.80;93.50;;;;;;5014915;28;20653;-52
2021/03/09 05:19:03;;;;;;;22.03;11.50;;;-2.80;93.40;;;;;;5002859;28;20693;-50
2021/03/09 05:21:29;;;;;;;20.97;10.83;;;-2.90;93.30;;;;;;5004661;28;20201;-54
2021/03/09 05:23:55;;;;;;;23.03;11.90;;;-2.90;93.30;;;;;;5004599;28;20182;-54
2021/03/09 05:26:20;;;;;;;21.90;10.90;;;-2.90;93.40;;;;;;5005683;28;20526;-54
2021/03/09 05:28:49;;;;;;;26.63;11.73;;;-3.00;93.50;;;;;;4999276;28;20580;-52
2021/03/09 05:31:15;;;;;;;27.80;11.27;;;-3.00;93.70;;;;;;4990671;28;20195;-52
2021/03/09 05:33:41;;;;;;;22.03;11.30;;;-3.00;93.80;;;;;;4988636;28;20419;-55
2021/03/09 05:36:07;;;;;;;21.50;11.03;;;-3.00;93.80;;;;;;4990972;28;20202;-55
2021/03/09 05:38:33;;;;;;;28.47;12.07;;;-3.00;93.90;;;;;;4997754;28;20239;-55
2021/03/09 05:40:59;;;;;;;26.00;11.40;;;-3.00;94.10;;;;;;4995635;28;20521;-55
2021/03/09 05:43:25;;;;;;;36.77;12.43;;;-3.00;94.10;;;;;;5014302;22;20479;-59
2021/03/09 05:45:54;;;;;;;30.03;12.63;;;-3.00;94.00;;;;;;5001712;28;20423;-59
2021/03/09 05:48:20;;;;;;;26.90;12.60;;;-3.00;93.90;;;;;;5005751;28;20182;-57
2021/03/09 05:50:45;;;;;;;21.60;11.10;;;-3.00;94.00;;;;;;4998577;28;20432;-59
2021/03/09 05:53:11;;;;;;;25.63;12.87;;;-3.00;94.00;;;;;;4992871;28;20221;-60
2021/03/09 05:55:38;;;;;;;21.40;11.67;;;-2.90;94.10;;;;;;4994421;28;20500;-62
2021/03/09 05:58:04;;;;;;;27.50;12.60;;;-2.90;94.10;;;;;;5001769;28;20182;-60
2021/03/09 06:00:30;;;;;;;24.73;12.77;;;-2.90;94.20;;;;;;5003926;28;20446;-61
2021/03/09 06:02:56;;;;;;;19.47;11.50;;;-2.90;94.40;;;;;;5006347;28;20424;-61
2021/03/09 06:05:22;;;;;;;24.90;11.77;;;-2.90;94.40;;;;;;5010911;28;20447;-61
2021/03/09 06:07:51;;;;;;;29.53;12.07;;;-2.90;94.50;;;;;;5002016;28;20190;-63
2021/03/09 06:10:22;;;;;;;19.13;10.77;;;-2.90;94.50;;;;;;5010255;28;20189;-59
2021/03/09 06:12:48;;;;;;;27.03;12.90;;;-2.90;94.40;;;;;;4996182;28;20422;-61
2021/03/09 06:15:14;;;;;;;23.60;12.03;;;-2.90;94.30;;;;;;5002248;28;20409;-61
2021/03/09 06:17:41;;;;;;;24.03;12.27;;;-2.90;94.20;;;;;;4995544;28;20399;-61
2021/03/09 06:20:18;;;;;;;31.40;11.87;;;-2.90;94.20;;;;;;4995701;28;20457;-60
2021/03/09 06:22:46;;;;;;;28.27;13.40;;;-2.80;94.50;;;;;;5000567;28;20427;-61
2021/03/09 06:25:18;;;;;;;25.33;12.80;;;-2.80;94.50;;;;;;5001822;28;20398;-61
2021/03/09 06:27:45;;;;;;;24.80;12.80;;;-2.70;94.40;;;;;;4997366;28;20805;-61
2021/03/09 06:30:12;;;;;;;28.40;11.80;;;-2.70;94.50;;;;;;4997692;28;20437;-65
2021/03/09 06:32:41;;;;;;;32.27;13.97;;;-2.70;94.40;;;;;;5001671;28;20999;-62
2021/03/09 06:35:27;;;;;;;23.50;10.97;;;-2.60;94.40;;;;;;4996847;28;20711;-64
2021/03/09 06:37:53;;;;;;;24.93;11.83;;;-2.60;94.40;;;;;;4999723;28;20411;-60
2021/03/09 06:40:19;;;;;;;25.10;13.57;;;-2.60;94.50;;;;;;4998818;28;20438;-64
2021/03/09 06:42:45;;;;;;;29.70;13.43;;;-2.60;94.60;;;;;;4996427;28;20276;-61
2021/03/09 06:45:14;;;;;;;25.90;12.97;;;-2.50;94.40;;;;;;4993649;28;20440;-62
2021/03/09 06:47:44;;;;;;;27.67;12.80;;;-2.50;94.60;;;;;;5000080;28;20445;-60
2021/03/09 06:50:11;;;;;;;24.70;11.83;;;-2.50;94.80;;;;;;5009986;28;20428;-61
2021/03/09 06:52:38;;;;;;;27.20;13.60;;;-2.50;95.00;;;;;;5007516;28;20470;-60
2021/03/09 06:55:06;;;;;;;22.50;11.33;;;-2.40;95.10;;;;;;5009202;28;20970;-62
2021/03/09 06:57:32;;;;;;;25.47;11.67;;;-2.30;95.20;;;;;;5010757;28;20441;-60
2021/03/09 06:59:58;;;;;;;24.70;12.47;;;-2.20;94.90;;;;;;5004482;28;21042;-61
2021/03/09 07:02:28;;;;;;;24.50;12.47;;;-2.20;94.80;;;;;;5008649;28;20203;-61
2021/03/09 07:05:10;;;;;;;24.17;12.43;;;-2.10;94.80;;;;;;5002599;28;20477;-61
2021/03/09 07:07:42;;;;;;;24.07;12.33;;;-2.00;94.50;;;;;;5003476;28;20407;-60
2021/03/09 07:10:09;;;;;;;26.43;13.07;;;-2.00;94.40;;;;;;5003068;28;20446;-64
2021/03/09 07:12:37;;;;;;;21.97;12.57;;;-1.90;94.30;;;;;;5001911;28;20431;-61
2021/03/09 07:15:05;;;;;;;23.63;12.30;;;-1.90;94.20;;;;;;5000452;28;20448;-60
2021/03/09 07:17:33;;;;;;;26.83;13.30;;;-1.80;94.40;;;;;;5005263;28;20456;-61
2021/03/09 07:19:59;;;;;;;28.90;13.53;;;-1.80;94.20;;;;;;5017186;28;20543;-60
2021/03/09 07:22:26;;;;;;;27.07;13.83;;;-1.70;94.10;;;;;;5008482;28;20554;-61
2021/03/09 07:25:13;;;;;;;29.83;13.50;;;-1.70;94.20;;;;;;5010398;28;20515;-60
2021/03/09 07:27:56;;;;;;;29.97;13.07;;;-1.70;94.60;;;;;;5001644;28;20429;-61
2021/03/09 07:30:25;;;;;;;29.83;13.17;;;-1.60;94.70;;;;;;5002892;28;20419;-60
2021/03/09 07:32:53;;;;;;;22.83;11.97;;;-1.50;94.70;;;;;;5003896;28;20420;-61
2021/03/09 07:35:20;;;;;;;23.63;11.40;;;-1.40;94.40;;;;;;5009702;28;20415;-61
2021/03/09 07:37:47;;;;;;;18.80;10.60;;;-1.30;94.20;;;;;;5008917;28;20449;-60
2021/03/09 07:40:15;;;;;;;23.70;13.50;;;-1.20;94.20;;;;;;5000864;28;20469;-61
2021/03/09 07:42:41;;;;;;;22.50;11.80;;;-1.20;94.10;;;;;;5009116;28;20479;-61
2021/03/09 07:45:29;;;;;;;24.77;12.60;;;-1.10;94.10;;;;;;5008654;28;20431;-60
2021/03/09 07:48:03;;;;;;;26.83;12.40;;;-1.10;94.00;;;;;;5009085;28;20624;-61
2021/03/09 07:50:33;;;;;;;22.33;12.77;;;-1.00;93.90;;;;;;5010036;28;20444;-61
2021/03/09 07:52:59;;;;;;;23.60;12.53;;;-1.00;94.10;;;;;;5008568;28;20454;-61
2021/03/09 07:55:28;;;;;;;23.70;13.37;;;-0.90;94.30;;;;;;5001671;28;20494;-62
2021/03/09 07:58:19;;;;;;;27.77;12.97;;;-0.80;94.20;;;;;;5009240;28;20197;-61
2021/03/09 08:00:58;;;;;;;30.43;14.07;;;-0.70;94.00;;;;;;5004258;28;20499;-60
2021/03/09 08:03:26;;;;;;;29.23;14.60;;;-0.60;94.10;;;;;;5003065;28;20953;-61
2021/03/09 08:06:05;;;;;;;31.60;13.07;;;-0.50;94.00;;;;;;5000956;28;20394;-60
2021/03/09 08:08:47;;;;;;;27.57;14.97;;;-0.30;93.80;;;;;;5003017;28;20438;-57
2021/03/09 08:11:23;;;;;;;30.10;14.27;;;-0.10;93.80;;;;;;5010307;28;20611;-55
2021/03/09 08:14:03;;;;;;;26.90;14.23;;;0.00;93.60;;;;;;5010229;28;20790;-55
2021/03/09 08:16:31;;;;;;;33.13;16.43;;;0.10;93.70;;;;;;5008419;28;20436;-57
2021/03/09 08:18:58;;;;;;;25.00;13.43;;;0.20;93.70;;;;;;5008626;28;20955;-55
2021/03/09 08:21:57;;;;;;;28.83;14.60;;;0.30;93.50;;;;;;5009578;28;20439;-57
2021/03/09 08:24:45;;;;;;;26.70;14.20;;;0.40;93.50;;;;;;4968301;28;20448;-55
2021/03/09 08:27:36;;;;;;;28.27;14.93;;;0.50;93.70;;;;;;5008833;28;20463;-56
2021/03/09 08:30:08;;;;;;;27.47;13.93;;;0.60;92.90;;;;;;5000827;28;20968;-56
2021/03/09 08:32:38;;;;;;;33.83;15.77;;;0.70;92.60;;;;;;5006772;28;20523;-56
2021/03/09 08:35:13;;;;;;;30.83;15.03;;;0.80;92.60;;;;;;5009786;28;21128;-57
2021/03/09 08:37:44;;;;;;;29.60;14.77;;;0.90;92.80;;;;;;5014663;28;20463;-55
2021/03/09 08:40:12;;;;;;;32.23;14.43;;;0.90;92.70;;;;;;5012408;28;20504;-57
2021/03/09 08:43:02;;;;;;;33.30;15.50;;;1.00;92.80;;;;;;5008279;28;20466;-57
2021/03/09 08:45:41;;;;;;;31.13;15.40;;;1.10;92.70;;;;;;5008163;28;20444;-57
2021/03/09 08:48:09;;;;;;;35.83;16.30;;;1.20;93.10;;;;;;5007340;28;20431;-56
2021/03/09 08:50:42;;;;;;;30.17;15.73;;;1.30;92.90;;;;;;5006003;28;20892;-57
2021/03/09 08:53:29;;;;;;;29.20;14.40;;;1.40;92.90;;;;;;5004180;28;21032;-55
2021/03/09 08:55:56;;;;;;;26.90;14.33;;;1.50;92.80;;;;;;5006982;28;20430;-57
2021/03/09 08:58:23;;;;;;;32.77;17.10;;;1.60;92.80;;;;;;5011674;28;20445;-56
2021/03/09 09:00:49;;;;;;;26.23;14.80;;;1.60;92.50;;;;;;5015726;28;21005;-56
2021/03/09 09:03:34;;;;;;;28.57;15.17;;;1.70;92.70;;;;;;5003506;28;20456;-57
2021/03/09 09:06:00;;;;;;;31.23;15.17;;;1.80;92.70;;;;;;5013198;28;20437;-57
2021/03/09 09:08:25;;;;;;;36.70;15.47;;;1.90;92.80;;;;;;5006344;28;20438;-57
2021/03/09 09:10:52;;;;;;;27.47;15.90;;;2.10;92.60;;;;;;5010380;28;20500;-58
2021/03/09 09:13:28;;;;;;;29.07;16.77;;;2.20;92.50;;;;;;5014363;28;20214;-64
2021/03/09 09:15:54;;;;;;;28.43;15.30;;;2.30;92.30;;;;;;5025485;28;20451;-59
2021/03/09 09:18:22;;;;;;;26.77;14.90;;;2.50;92.30;;;;;;5008311;28;20435;-61
2021/03/09 09:20:49;;;;;;;32.17;14.80;;;2.70;92.00;;;;;;4996817;28;20474;-60
2021/03/09 09:23:16;;;;;;;26.20;15.60;;;2.80;91.60;;;;;;5003661;28;20455;-59
2021/03/09 09:25:51;;;;;;;27.47;14.93;;;3.10;91.00;;;;;;5000339;28;20907;-60
2021/03/09 09:28:31;;;;;;;28.40;15.20;;;3.30;90.80;;;;;;5003413;28;20856;-60
2021/03/09 09:31:19;;;;;;;29.20;15.13;;;3.50;90.90;;;;;;5003134;28;20808;-64
2021/03/09 09:33:52;;;;;;;31.80;15.70;;;3.60;90.00;;;;;;5004498;28;20486;-60
2021/03/09 09:36:19;;;;;;;29.57;15.20;;;3.80;89.50;;;;;;5000380;28;20431;-62
2021/03/09 09:38:52;;;;;;;27.00;15.13;;;4.10;87.80;;;;;;5004267;28;20462;-61
2021/03/09 09:41:19;;;;;;;34.37;15.90;;;4.20;84.70;;;;;;5003423;28;20461;-63
2021/03/09 09:43:45;;;;;;;39.67;14.90;;;4.30;84.40;;;;;;5004118;28;20466;-59
2021/03/09 09:46:37;;;;;;;27.30;15.43;;;4.40;83.30;;;;;;5006171;28;20434;-60
2021/03/09 09:49:03;;;;;;;27.70;15.50;;;4.60;82.00;;;;;;4996713;28;20212;-61
2021/03/09 09:51:30;;;;;;;30.00;16.93;;;4.60;79.20;;;;;;5007923;28;20487;-62
2021/03/09 09:53:56;;;;;;;28.00;15.13;;;4.70;79.00;;;;;;4995628;28;21008;-63
2021/03/09 09:56:24;;;;;;;33.93;16.47;;;4.80;78.50;;;;;;5001313;28;20483;-62
2021/03/09 09:59:00;;;;;;;29.23;15.73;;;5.00;77.40;;;;;;5008931;28;20435;-62
2021/03/09 10:01:32;;;;;;;29.80;17.67;;;5.10;74.10;;;;;;5005355;28;20431;-62
2021/03/09 10:04:00;;;;;;;25.73;15.50;;;5.20;73.70;;;;;;5004255;28;21184;-61
2021/03/09 10:06:38;;;;;;;28.50;16.97;;;5.20;72.10;;;;;;5007856;28;20439;-63
2021/03/09 10:09:14;;;;;;;29.87;16.80;;;5.30;66.50;;;;;;5008262;28;20438;-60
2021/03/09 10:11:54;;;;;;;28.70;16.93;;;5.40;65.60;;;;;;4996688;28;20431;-60
2021/03/09 10:14:23;;;;;;;32.70;16.43;;;5.50;65.10;;;;;;5002071;28;20451;-64
2021/03/09 10:16:49;;;;;;;29.00;17.20;;;5.60;63.10;;;;;;5001571;28;20940;-60
2021/03/09 10:19:17;;;;;;;28.67;16.87;;;5.60;62.90;;;;;;5007558;28;20455;-61
2021/03/09 10:21:44;;;;;;;31.57;18.10;;;5.70;58.80;;;;;;5008835;28;20455;-61
2021/03/09 10:24:22;;;;;;;29.60;18.20;;;5.70;58.60;;;;;;5007228;28;20439;-61
2021/03/09 10:26:51;;;;;;;33.27;17.80;;;5.70;55.90;;;;;;5000207;28;20442;-63
2021/03/09 10:29:19;;;;;;;29.83;18.70;;;5.70;55.40;;;;;;5003448;28;20434;-61
2021/03/09 10:31:55;;;;;;;30.87;19.30;;;5.70;55.50;;;;;;5005463;28;20436;-62
2021/03/09 10:34:33;;;;;;;37.83;18.40;;;5.70;53.90;;;;;;5006833;28;20463;-61
2021/03/09 10:37:00;;;;;;;38.17;20.17;;;5.80;54.80;;;;;;5014002;28;20426;-61
2021/03/09 10:39:28;;;;;;;30.70;18.67;;;5.80;53.90;;;;;;5013464;28;20455;-61
2021/03/09 10:41:54;;;;;;;43.47;18.97;;;5.90;54.30;;;;;;5005424;28;20462;-60
2021/03/09 10:44:33;;;;;;;33.67;18.70;;;6.10;53.70;;;;;;5005332;28;20990;-62
2021/03/09 10:47:00;;;;;;;35.30;20.17;;;6.20;52.60;;;;;;5001018;28;20492;-60
2021/03/09 10:49:28;;;;;;;31.93;18.43;;;6.30;51.90;;;;;;5004904;28;20439;-61
2021/03/09 10:52:06;;;;;;;32.27;19.10;;;6.50;51.70;;;;;;4998968;28;20454;-60
2021/03/09 10:54:33;;;;;;;31.33;19.50;;;6.60;51.50;;;;;;4996518;28;20467;-61
2021/03/09 10:56:59;;;;;;;34.37;18.73;;;6.70;51.20;;;;;;5007478;28;20486;-60
2021/03/09 10:59:25;;;;;;;35.10;19.67;;;6.80;50.80;;;;;;4998280;28;21000;-61
2021/03/09 11:01:51;;;;;;;31.00;18.70;;;6.90;50.30;;;;;;5005332;28;20432;-62
2021/03/09 11:04:17;;;;;;;36.13;19.60;;;7.00;50.00;;;;;;5004449;28;20459;-61
2021/03/09 11:06:43;;;;;;;30.77;18.73;;;7.10;49.80;;;;;;5004138;28;20431;-62
2021/03/09 11:09:09;;;;;;;35.30;19.70;;;7.20;49.10;;;;;;5002667;28;20446;-65
2021/03/09 11:11:35;;;;;;;35.03;19.80;;;7.40;49.20;;;;;;5000268;28;20275;-61
2021/03/09 11:14:00;;;;;;;31.97;19.80;;;7.50;48.60;;;;;;5000775;28;20538;-59
2021/03/09 11:16:30;;;;;;;32.13;18.90;;;7.60;48.30;;;;;;5002626;28;20210;-62
2021/03/09 11:18:56;;;;;;;40.03;19.13;;;7.80;48.00;;;;;;5003022;28;20605;-61
2021/03/09 11:21:21;;;;;;;33.40;20.10;;;7.90;47.40;;;;;;5001891;28;20446;-62
2021/03/09 11:23:51;;;;;;;32.20;19.13;;;7.90;47.10;;;;;;5008393;28;20956;-61
2021/03/09 11:26:18;;;;;;;34.03;19.90;;;7.90;47.20;;;;;;5006031;28;20207;-61
2021/03/09 11:28:44;;;;;;;31.07;19.33;;;8.00;47.10;;;;;;4999253;28;20434;-61
2021/03/09 11:31:10;;;;;;;31.13;18.47;;;8.00;45.90;;;;;;5007264;28;20435;-62
2021/03/09 11:33:35;;;;;;;32.10;20.47;;;7.90;44.60;;;;;;5009251;28;20455;-61
2021/03/09 11:36:01;;;;;;;31.17;18.87;;;7.90;43.90;;;;;;5005803;28;20709;-59
2021/03/09 11:38:27;;;;;;;32.30;19.30;;;7.80;43.80;;;;;;5006959;28;20290;-61
2021/03/09 11:40:52;;;;;;;35.07;18.80;;;7.80;44.10;;;;;;5000993;28;20231;-60
2021/03/09 11:43:18;;;;;;;33.80;19.60;;;8.10;43.90;;;;;;5021086;23;20610;-57
2021/03/09 11:45:44;;;;;;;30.17;18.80;;;8.20;43.10;;;;;;5035328;28;20571;-58
2021/03/09 11:48:09;;;;;;;30.23;18.57;;;8.50;43.30;;;;;;5019169;28;20176;-59
2021/03/09 11:50:37;;;;;;;30.30;18.40;;;8.90;42.30;;;;;;5021634;28;20234;-60
2021/03/09 11:53:03;;;;;;;30.30;17.50;;;9.20;41.10;;;;;;5016336;28;20305;-59
2021/03/09 11:55:29;;;;;;;28.20;17.20;;;9.40;40.80;;;;;;4983140;28;20450;-59
2021/03/09 11:57:54;;;;;;;28.97;17.30;;;9.70;40.10;;;;;;5000523;28;20188;-60
2021/03/09 12:00:22;;;;;;;32.13;19.27;;;10.00;37.60;;;;;;5000666;28;20208;-58
2021/03/09 12:02:48;;;;;;;31.77;18.53;;;10.10;37.50;;;;;;5002472;28;20181;-56
2021/03/09 12:05:14;;;;;;;36.07;19.93;;;10.20;40.00;;;;;;4996787;28;20925;-56
2021/03/09 12:07:40;;;;;;;32.37;20.50;;;10.40;39.80;;;;;;5001859;28;20435;-56
2021/03/09 12:10:06;;;;;;;29.27;17.57;;;10.50;37.80;;;;;;5006254;28;20477;-56
2021/03/09 12:12:32;;;;;;;29.13;18.80;;;10.50;36.60;;;;;;4997612;28;20200;-56
2021/03/09 12:14:58;;;;;;;31.30;18.97;;;10.40;35.60;;;;;;4996507;28;20597;-56
2021/03/09 12:17:23;;;;;;;31.83;18.73;;;10.40;36.80;;;;;;4994047;28;20982;-56
2021/03/09 12:19:49;;;;;;;32.30;19.03;;;10.50;37.10;;;;;;5007318;28;20208;-56
2021/03/09 12:22:15;;;;;;;31.17;18.43;;;10.50;36.30;;;;;;5000883;28;20180;-57
2021/03/09 12:24:41;;;;;;;29.43;18.53;;;10.60;36.60;;;;;;5002848;28;20213;-57
2021/03/09 12:27:07;;;;;;;27.37;17.67;;;10.60;36.60;;;;;;4999216;28;20435;-56
2021/03/09 12:29:33;;;;;;;39.93;18.50;;;10.60;36.50;;;;;;4999321;28;20284;-57
2021/03/09 12:31:59;;;;;;;28.40;18.10;;;10.60;35.90;;;;;;5004201;28;20466;-58
2021/03/09 12:34:25;;;;;;;28.60;18.13;;;10.60;35.90;;;;;;5002132;28;20899;-58
2021/03/09 12:36:51;;;;;;;29.40;18.60;;;10.40;35.70;;;;;;5002012;28;20766;-58
2021/03/09 12:39:17;;;;;;;32.17;18.23;;;10.20;34.20;;;;;;5007354;28;20451;-57